Time;durP1;ratioP1;P1;durP2;ratioP2;P2;SDS_P1;SDS_P2;PMS_P1;PMS_P2;Temp;Humidity;BMP_temperature;BMP_pressure;BME280_temperature;BME280_humidity;BME280_pressure;Samples;Min_cycle;Max_cycle;Signal;HPM_P1;HPM_P2
2022/05/09 00:01:39;;;;;;;;;;;;;;;13.32;82.56;97353.31;1688736;84;20170;-85
2022/05/09 00:04:05;;;;;;;;;;;;;;;13.31;82.46;97349.08;1669461;86;20096;-85
2022/05/09 00:06:30;;;;;;;;;;;;;;;13.28;82.46;97349.44;1686814;85;20151;-85
2022/05/09 00:08:56;;;;;;;;;;;;;;;13.26;82.51;97346.69;1696896;85;20375;-85
2022/05/09 00:11:21;;;;;;;;;;;;;;;13.23;82.51;97349.16;1696366;83;20128;-85
2022/05/09 00:13:47;;;;;;;;;;;;;;;13.20;82.52;97343.80;1697369;85;20321;-85
2022/05/09 00:16:12;;;;;;;;;;;;;;;13.15;82.41;97341.34;1671124;85;20121;-85
2022/05/09 00:18:38;;;;;;;;;;;;;;;13.10;82.44;97341.87;1678669;85;20139;-86
2022/05/09 00:21:03;;;;;;;;;;;;;;;13.08;82.48;97341.73;1683630;84;20124;-85
2022/05/09 00:23:29;;;;;;;;;;;;;;;13.05;82.40;97341.59;1683415;84;20131;-85
2022/05/09 00:25:57;;;;;;;;;;;;;;;13.04;82.32;97341.27;1683257;85;20104;-85
2022/05/09 00:28:23;;;;;;;;;;;;;;;13.04;82.25;97337.86;1684254;84;20377;-85
2022/05/09 00:30:49;;;;;;;;;;;;;;;13.03;82.27;97337.05;1687128;83;20121;-86
2022/05/09 00:33:14;;;;;;;;;;;;;;;13.02;82.19;97343.25;1669123;86;20171;-85
2022/05/09 00:35:44;;;;;;;;;;;;;;;13.01;82.06;97346.00;1669236;86;20148;-85
2022/05/09 00:38:09;;;;;;;;;;;;;;;12.93;81.94;97341.17;1669185;85;20154;-86
2022/05/09 00:40:34;;;;;;;;;;;;;;;12.87;82.00;97346.28;1669452;86;20097;-85
2022/05/09 00:43:01;;;;;;;;;;;;;;;12.81;82.06;97344.34;1669397;86;20379;-85
2022/05/09 00:45:26;;;;;;;;;;;;;;;12.76;82.16;97346.66;1674476;85;20130;-85
2022/05/09 00:47:52;;;;;;;;;;;;;;;12.71;82.17;97335.94;1696483;85;20088;-85
2022/05/09 00:50:20;;;;;;;;;;;;;;;12.68;82.17;97334.46;1681851;85;20121;-85
2022/05/09 00:52:55;;;;;;;;;;;;;;;12.67;82.22;97334.63;1688136;85;20160;-85
2022/05/09 00:55:37;;;;;;;;;;;;;;;12.66;82.22;97327.30;1694111;85;20120;-85
2022/05/09 00:58:07;;;;;;;;;;;;;;;12.69;82.30;97330.06;1693695;85;20126;-86
2022/05/09 01:00:33;;;;;;;;;;;;;;;12.68;82.52;97327.13;1690319;83;20179;-85
2022/05/09 01:03:01;;;;;;;;;;;;;;;12.67;82.93;97325.51;1693702;85;20130;-85
2022/05/09 01:05:28;;;;;;;;;;;;;;;12.63;82.82;97328.47;1694015;85;20130;-85
2022/05/09 01:07:54;;;;;;;;;;;;;;;12.62;83.12;97329.94;1673352;85;20097;-85
2022/05/09 01:10:21;;;;;;;;;;;;;;;12.62;83.30;97324.23;1669270;86;20365;-85
2022/05/09 01:12:47;;;;;;;;;;;;;;;12.66;83.39;97329.91;1701065;83;20134;-85
2022/05/09 01:15:14;;;;;;;;;;;;;;;12.60;83.18;97324.91;1702481;83;20183;-85
2022/05/09 01:17:40;;;;;;;;;;;;;;;12.60;83.45;97330.12;1697123;84;20435;-85
2022/05/09 01:20:07;;;;;;;;;;;;;;;12.58;83.46;97334.70;1697382;85;20104;-85
2022/05/09 01:22:36;;;;;;;;;;;;;;;12.57;83.23;97334.37;1697137;85;20134;-85
2022/05/09 01:25:06;;;;;;;;;;;;;;;12.61;83.46;97333.53;1697076;84;20151;-86
2022/05/09 01:27:32;;;;;;;;;;;;;;;12.66;83.42;97331.22;1697145;85;20100;-85
2022/05/09 01:30:10;;;;;;;;;;;;;;;12.70;83.24;97336.44;1697392;85;20128;-85
2022/05/09 01:32:52;;;;;;;;;;;;;;;12.72;83.17;97338.38;1683878;84;20096;-85
2022/05/09 01:35:38;;;;;;;;;;;;;;;12.74;83.66;97342.92;1682119;85;20101;-85
2022/05/09 01:38:39;;;;;;;;;;;;;;;12.79;83.43;97344.52;1689284;85;20092;-85
2022/05/09 01:41:05;;;;;;;;;;;;;;;12.79;83.21;97342.40;1689971;85;20104;-85
2022/05/09 01:43:38;;;;;;;;;;;;;;;12.77;83.11;97341.77;1687132;85;20397;-85
2022/05/09 01:46:10;;;;;;;;;;;;;;;12.72;83.01;97347.50;1682528;85;20104;-84
2022/05/09 01:51:20;;;;;;;;;;;;;;;12.66;82.98;97350.77;1662581;86;20133;-83
2022/05/09 01:53:50;;;;;;;;;;;;;;;12.63;83.07;97343.30;1675451;85;20125;-84
2022/05/09 01:56:13;;;;;;;;;;;;;;;12.64;83.00;97347.53;1678688;85;20148;-84
2022/05/09 01:58:38;;;;;;;;;;;;;;;12.66;83.14;97349.47;1676526;86;20381;-85
2022/05/09 02:01:06;;;;;;;;;;;;;;;12.69;83.30;97353.52;1683391;85;20080;-84
2022/05/09 02:03:31;;;;;;;;;;;;;;;12.70;83.32;97358.59;1688901;85;20171;-84
2022/05/09 02:05:57;;;;;;;;;;;;;;;12.69;83.36;97367.87;1689048;85;20349;-84
2022/05/09 02:08:22;;;;;;;;;;;;;;;12.67;83.37;97367.23;1680847;85;20097;-84
2022/05/09 02:10:49;;;;;;;;;;;;;;;12.63;83.37;97374.59;1671825;84;20456;-84
2022/05/09 02:13:14;;;;;;;;;;;;;;;12.60;83.34;97371.83;1690064;85;20139;-84
2022/05/09 02:15:40;;;;;;;;;;;;;;;12.57;83.35;97372.17;1662452;86;20114;-84
2022/05/09 02:18:06;;;;;;;;;;;;;;;12.56;83.36;97373.16;1662585;86;20443;-84
2022/05/09 02:20:31;;;;;;;;;;;;;;;12.54;83.33;97366.00;1662550;86;20166;-84
2022/05/09 02:22:57;;;;;;;;;;;;;;;12.52;83.37;97367.94;1662455;86;20102;-84
2022/05/09 02:25:31;;;;;;;;;;;;;;;12.55;83.32;97365.52;1662483;85;20115;-84
2022/05/09 02:28:01;;;;;;;;;;;;;;;12.57;83.09;97361.75;1662527;86;20806;-84
2022/05/09 02:30:27;;;;;;;;;;;;;;;12.54;82.90;97358.67;1666802;85;20130;-84
2022/05/09 02:32:53;;;;;;;;;;;;;;;12.51;82.85;97349.37;1690197;85;20404;-84
2022/05/09 02:35:20;;;;;;;;;;;;;;;12.47;82.91;97352.01;1689918;85;20115;-84
2022/05/09 02:37:47;;;;;;;;;;;;;;;12.44;83.06;97349.75;1690239;85;20140;-84
2022/05/09 02:40:15;;;;;;;;;;;;;;;12.44;83.01;97352.84;1690053;85;20087;-84
2022/05/09 02:42:41;;;;;;;;;;;;;;;12.44;83.07;97354.95;1690055;85;20317;-84
2022/05/09 02:45:07;;;;;;;;;;;;;;;12.47;83.20;97363.73;1690162;85;20119;-84
2022/05/09 02:47:33;;;;;;;;;;;;;;;12.48;83.19;97365.36;1690240;85;20120;-84
2022/05/09 02:49:58;;;;;;;;;;;;;;;12.52;83.46;97374.95;1676426;86;20103;-84
2022/05/09 02:52:24;;;;;;;;;;;;;;;12.49;83.48;97378.71;1676641;86;20108;-84
2022/05/09 02:54:49;;;;;;;;;;;;;;;12.43;83.96;97379.89;1676442;86;20080;-85
2022/05/09 02:57:15;;;;;;;;;;;;;;;12.43;84.06;97378.09;1676450;86;20108;-84
2022/05/09 02:59:41;;;;;;;;;;;;;;;12.39;83.90;97382.03;1678735;85;20380;-84
2022/05/09 03:02:08;;;;;;;;;;;;;;;12.38;84.03;97383.02;1689944;84;20135;-84
2022/05/09 03:04:41;;;;;;;;;;;;;;;12.38;83.92;97386.11;1679625;85;20112;-84
2022/05/09 03:07:11;;;;;;;;;;;;;;;12.38;83.93;97386.11;1701304;84;20091;-85
2022/05/09 03:09:37;;;;;;;;;;;;;;;12.39;83.90;97387.24;1704616;84;20179;-84
2022/05/09 03:12:04;;;;;;;;;;;;;;;12.37;83.79;97389.20;1728324;82;20757;-84
2022/05/09 03:14:34;;;;;;;;;;;;;;;12.37;83.87;97384.48;1687474;85;20124;-85
2022/05/09 03:16:59;;;;;;;;;;;;;;;12.35;83.74;97388.53;1696779;84;20125;-84
2022/05/09 03:19:25;;;;;;;;;;;;;;;12.35;83.68;97391.14;1680716;85;20298;-84
2022/05/09 03:21:52;;;;;;;;;;;;;;;12.30;83.54;97389.54;1680893;85;20128;-84
2022/05/09 03:24:17;;;;;;;;;;;;;;;12.24;83.37;97389.73;1685771;84;20085;-85
2022/05/09 03:26:43;;;;;;;;;;;;;;;12.18;83.43;97386.47;1676890;86;20093;-85
2022/05/09 03:29:09;;;;;;;;;;;;;;;12.14;83.48;97388.28;1676875;85;20151;-84
2022/05/09 03:31:35;;;;;;;;;;;;;;;12.10;83.35;97389.60;1694051;83;20118;-84
2022/05/09 03:34:01;;;;;;;;;;;;;;;12.06;83.28;97391.73;1716284;83;20145;-84
2022/05/09 03:36:27;;;;;;;;;;;;;;;12.02;83.27;97391.23;1662583;86;20149;-84
2022/05/09 03:38:52;;;;;;;;;;;;;;;12.00;83.43;97387.17;1687212;85;20116;-84
2022/05/09 03:41:20;;;;;;;;;;;;;;;11.98;83.49;97391.73;1687092;85;20177;-84
2022/05/09 03:43:46;;;;;;;;;;;;;;;11.97;83.49;97391.41;1688945;84;20145;-84
2022/05/09 03:46:11;;;;;;;;;;;;;;;11.96;83.43;97389.30;1715718;84;20312;-85
2022/05/09 03:48:37;;;;;;;;;;;;;;;11.94;83.41;97387.84;1715885;84;20181;-85
2022/05/09 03:51:03;;;;;;;;;;;;;;;11.91;83.32;97390.78;1715798;84;20085;-84
2022/05/09 03:53:28;;;;;;;;;;;;;;;11.85;83.15;97396.63;1715789;84;20150;-84
2022/05/09 03:55:54;;;;;;;;;;;;;;;11.78;83.34;97393.04;1712038;84;20229;-83
2022/05/09 03:58:20;;;;;;;;;;;;;;;11.73;83.62;97402.66;1671651;86;20127;-84
2022/05/09 04:00:45;;;;;;;;;;;;;;;11.70;83.67;97402.95;1717340;83;20315;-84
2022/05/09 04:03:12;;;;;;;;;;;;;;;11.67;83.66;97406.70;1694630;84;20172;-84
2022/05/09 04:05:38;;;;;;;;;;;;;;;11.63;83.58;97417.13;1702841;83;20103;-85
2022/05/09 04:08:06;;;;;;;;;;;;;;;11.63;83.52;97421.03;1689218;84;20105;-85
2022/05/09 04:10:33;;;;;;;;;;;;;;;11.62;83.50;97422.01;1692520;83;20087;-85
2022/05/09 04:12:59;;;;;;;;;;;;;;;11.62;83.63;97428.52;1695623;84;20462;-84
2022/05/09 04:18:09;;;;;;;;;;;;;;;11.63;83.66;97428.03;1697834;83;20178;-84
2022/05/09 04:20:35;;;;;;;;;;;;;;;11.64;83.75;97421.84;1705673;84;20447;-84
2022/05/09 04:23:01;;;;;;;;;;;;;;;11.62;83.80;97425.10;1710303;84;20369;-84
2022/05/09 04:25:29;;;;;;;;;;;;;;;11.62;83.77;97430.30;1709728;83;20159;-84
2022/05/09 04:27:57;;;;;;;;;;;;;;;11.62;83.87;97426.41;1710345;84;20119;-84
2022/05/09 04:30:23;;;;;;;;;;;;;;;11.64;84.04;97424.45;1708284;84;20213;-84
2022/05/09 04:32:49;;;;;;;;;;;;;;;11.69;84.20;97423.46;1710328;84;20196;-84
2022/05/09 04:35:17;;;;;;;;;;;;;;;11.75;84.30;97424.62;1710109;84;20094;-84
2022/05/09 04:37:45;;;;;;;;;;;;;;;11.84;84.52;97430.97;1709846;83;20382;-84
2022/05/09 04:40:11;;;;;;;;;;;;;;;11.93;84.57;97428.70;1710049;84;20362;-85
2022/05/09 04:42:37;;;;;;;;;;;;;;;12.01;84.71;97436.48;1710231;84;20097;-84
2022/05/09 04:45:03;;;;;;;;;;;;;;;12.09;84.77;97435.68;1693785;83;20116;-84
2022/05/09 04:47:28;;;;;;;;;;;;;;;12.15;84.77;97432.89;1703862;83;20463;-84
2022/05/09 04:49:54;;;;;;;;;;;;;;;12.24;85.04;97435.82;1710272;84;20178;-84
2022/05/09 04:52:19;;;;;;;;;;;;;;;12.39;85.45;97442.47;1710262;84;20138;-84
2022/05/09 04:54:45;;;;;;;;;;;;;;;12.49;85.03;97435.25;1709962;84;20155;-84
2022/05/09 04:57:11;;;;;;;;;;;;;;;12.55;85.44;97435.41;1704218;83;20373;-83
2022/05/09 04:59:36;;;;;;;;;;;;;;;12.65;85.22;97433.89;1710269;84;20087;-84
2022/05/09 05:02:02;;;;;;;;;;;;;;;12.73;85.19;97436.48;1707008;82;20439;-84
2022/05/09 05:04:28;;;;;;;;;;;;;;;12.79;85.35;97440.20;1710004;83;20146;-85
2022/05/09 05:06:53;;;;;;;;;;;;;;;12.70;84.09;97445.95;1710195;83;20110;-85
2022/05/09 05:09:19;;;;;;;;;;;;;;;12.62;84.01;97442.87;1710247;84;20200;-84
2022/05/09 05:11:45;;;;;;;;;;;;;;;12.70;84.51;97449.87;1704442;84;20096;-85
2022/05/09 05:14:10;;;;;;;;;;;;;;;12.82;84.59;97455.02;1699997;84;20132;-85
2022/05/09 05:19:20;;;;;;;;;;;;;;;13.08;84.80;97456.05;1701125;83;20378;-84
2022/05/09 05:21:46;;;;;;;;;;;;;;;13.13;84.29;97452.42;1700373;83;20174;-84
2022/05/09 05:24:11;;;;;;;;;;;;;;;13.25;84.58;97452.07;1688282;84;20138;-84
2022/05/09 05:26:37;;;;;;;;;;;;;;;13.29;84.31;97455.46;1666906;85;20102;-84
2022/05/09 05:29:02;;;;;;;;;;;;;;;13.34;84.11;97457.55;1666356;85;20367;-85
2022/05/09 05:31:28;;;;;;;;;;;;;;;13.38;84.09;97457.55;1696205;83;20100;-84
2022/05/09 05:33:53;;;;;;;;;;;;;;;13.42;83.66;97466.65;1717834;83;20361;-84
2022/05/09 05:36:20;;;;;;;;;;;;;;;13.46;83.84;97464.81;1688107;83;20109;-84
2022/05/09 05:38:51;;;;;;;;;;;;;;;13.54;84.17;97465.27;1719898;83;20368;-84
2022/05/09 05:41:13;;;;;;;;;;;;;;;13.63;84.54;97453.77;1715876;83;20125;-84
2022/05/09 05:43:39;;;;;;;;;;;;;;;13.73;84.21;97457.45;1724953;83;20452;-84
2022/05/09 05:46:08;;;;;;;;;;;;;;;13.78;84.31;97465.58;1716474;83;20119;-87
2022/05/09 05:48:36;;;;;;;;;;;;;;;13.85;84.24;97460.48;1700662;83;20191;-84
2022/05/09 05:51:01;;;;;;;;;;;;;;;13.93;83.88;97463.01;1717181;83;20323;-84
2022/05/09 05:53:27;;;;;;;;;;;;;;;13.97;83.73;97464.27;1721754;83;20089;-84
2022/05/09 05:55:53;;;;;;;;;;;;;;;14.02;83.96;97466.70;1721622;83;20101;-84
2022/05/09 05:58:19;;;;;;;;;;;;;;;14.12;83.70;97466.43;1721618;83;20120;-84
2022/05/09 06:00:45;;;;;;;;;;;;;;;14.25;83.38;97473.17;1723762;83;20133;-84
2022/05/09 06:03:10;;;;;;;;;;;;;;;14.37;82.84;97474.37;1704467;83;20076;-82
2022/05/09 06:05:36;;;;;;;;;;;;;;;14.49;81.48;97469.55;1695234;85;20344;-82
2022/05/09 06:08:02;;;;;;;;;;;;;;;14.62;81.20;97472.83;1696329;84;20091;-82
2022/05/09 06:10:30;;;;;;;;;;;;;;;14.63;80.43;97473.95;1696221;85;20143;-82
2022/05/09 06:12:55;;;;;;;;;;;;;;;14.65;80.25;97478.53;1696263;85;20357;-82
2022/05/09 06:15:32;;;;;;;;;;;;;;;14.71;80.61;97483.52;1696641;85;20151;-82
2022/05/09 06:17:59;;;;;;;;;;;;;;;14.71;80.41;97474.37;1696392;84;20111;-83
2022/05/09 06:20:30;;;;;;;;;;;;;;;14.81;78.54;97487.19;1695947;85;20147;-82
2022/05/09 06:22:56;;;;;;;;;;;;;;;14.83;78.64;97489.12;1695985;83;20127;-82
2022/05/09 06:25:22;;;;;;;;;;;;;;;14.83;77.86;97482.08;1712469;83;20440;-82
2022/05/09 06:27:48;;;;;;;;;;;;;;;14.79;77.48;97491.27;1666391;85;20142;-82
2022/05/09 06:30:14;;;;;;;;;;;;;;;14.73;77.48;97492.00;1684868;83;20169;-82
2022/05/09 06:32:40;;;;;;;;;;;;;;;14.74;77.91;97496.23;1718288;83;20135;-82
2022/05/09 06:35:08;;;;;;;;;;;;;;;14.81;78.06;97491.11;1725455;83;20112;-82
2022/05/09 06:37:34;;;;;;;;;;;;;;;14.89;78.71;97491.81;1714620;83;20085;-82
2022/05/09 06:40:00;;;;;;;;;;;;;;;14.95;78.13;97492.88;1719072;83;20129;-82
2022/05/09 06:42:27;;;;;;;;;;;;;;;14.96;77.41;97491.39;1714237;83;20100;-82
2022/05/09 06:44:54;;;;;;;;;;;;;;;14.90;77.14;97488.20;1721232;83;20133;-82
2022/05/09 06:47:20;;;;;;;;;;;;;;;14.92;77.96;97497.18;1715081;83;20113;-82
2022/05/09 06:49:45;;;;;;;;;;;;;;;15.03;78.28;97495.91;1725064;83;20085;-82
2022/05/09 06:52:11;;;;;;;;;;;;;;;15.21;78.79;97489.79;1719877;83;20299;-82
2022/05/09 06:54:37;;;;;;;;;;;;;;;15.39;78.72;97491.50;1725579;83;20410;-82
2022/05/09 06:57:04;;;;;;;;;;;;;;;15.51;77.45;97483.48;1721571;83;20097;-82
2022/05/09 06:59:31;;;;;;;;;;;;;;;15.52;77.42;97485.10;1724096;83;20160;-82
2022/05/09 07:01:57;;;;;;;;;;;;;;;15.53;77.40;97497.70;1718001;83;20089;-83
2022/05/09 07:04:23;;;;;;;;;;;;;;;15.58;76.80;97486.16;1711309;83;20103;-83
2022/05/09 07:06:49;;;;;;;;;;;;;;;15.58;77.20;97494.83;1696289;85;20384;-83
2022/05/09 07:09:15;;;;;;;;;;;;;;;15.61;76.30;97491.05;1696171;84;20100;-85
2022/05/09 07:11:41;;;;;;;;;;;;;;;15.61;76.20;97497.60;1711957;83;20097;-85
2022/05/09 07:14:07;;;;;;;;;;;;;;;15.65;75.92;97498.06;1721278;83;20107;-85
2022/05/09 07:16:33;;;;;;;;;;;;;;;15.71;75.93;97498.12;1717368;83;20198;-85
2022/05/09 07:19:01;;;;;;;;;;;;;;;15.73;75.39;97494.81;1688941;84;20173;-85
2022/05/09 07:21:27;;;;;;;;;;;;;;;15.68;74.53;97501.12;1682393;85;20116;-85
2022/05/09 07:23:53;;;;;;;;;;;;;;;15.63;74.97;97496.13;1682192;85;20120;-85
2022/05/09 07:26:19;;;;;;;;;;;;;;;15.65;75.38;97499.38;1682564;85;20116;-85
2022/05/09 07:28:45;;;;;;;;;;;;;;;15.69;75.02;97501.92;1676697;85;20125;-85
2022/05/09 07:31:10;;;;;;;;;;;;;;;15.68;75.04;97499.00;1679954;85;20444;-85
2022/05/09 07:33:36;;;;;;;;;;;;;;;15.72;73.07;97500.23;1676173;84;20086;-85
2022/05/09 07:36:03;;;;;;;;;;;;;;;15.73;73.64;97500.55;1675198;85;20081;-84
2022/05/09 07:38:29;;;;;;;;;;;;;;;15.83;74.30;97502.38;1675698;85;20115;-85
2022/05/09 07:40:54;;;;;;;;;;;;;;;15.82;72.35;97489.77;1679863;85;20116;-85
2022/05/09 07:43:23;;;;;;;;;;;;;;;15.97;72.64;97498.88;1679877;85;20148;-85
2022/05/09 07:45:50;;;;;;;;;;;;;;;16.09;73.28;97497.84;1674364;85;20351;-85
2022/05/09 07:48:16;;;;;;;;;;;;;;;16.15;72.24;97504.48;1673885;86;20129;-85
2022/05/09 07:50:42;;;;;;;;;;;;;;;16.17;71.19;97501.66;1657389;86;20125;-84
2022/05/09 07:53:10;;;;;;;;;;;;;;;16.19;71.30;97502.28;1683332;85;20088;-85
2022/05/09 07:55:37;;;;;;;;;;;;;;;16.26;71.88;97509.69;1663022;86;20086;-85
2022/05/09 07:58:03;;;;;;;;;;;;;;;16.24;70.32;97504.32;1664826;85;20078;-84
2022/05/09 08:00:29;;;;;;;;;;;;;;;16.28;70.28;97505.59;1662664;86;20122;-85
2022/05/09 08:02:54;;;;;;;;;;;;;;;16.27;69.75;97510.50;1635691;85;20093;-84
2022/05/09 08:05:20;;;;;;;;;;;;;;;16.32;68.99;97510.76;1665665;86;20103;-82
2022/05/09 08:07:46;;;;;;;;;;;;;;;16.38;68.59;97512.61;1667986;86;20133;-82
2022/05/09 08:10:12;;;;;;;;;;;;;;;16.47;68.46;97506.23;1667978;86;20090;-82
2022/05/09 08:12:38;;;;;;;;;;;;;;;16.55;68.49;97513.12;1667910;86;20121;-82
2022/05/09 08:15:05;;;;;;;;;;;;;;;16.64;68.32;97511.49;1667860;86;20319;-82
2022/05/09 08:17:32;;;;;;;;;;;;;;;16.70;67.07;97514.67;1667806;86;20386;-82
2022/05/09 08:19:58;;;;;;;;;;;;;;;16.78;66.05;97514.54;1683065;84;20330;-83
2022/05/09 08:22:28;;;;;;;;;;;;;;;16.88;66.39;97515.48;1691389;85;20167;-82
2022/05/09 08:24:52;;;;;;;;;;;;;;;16.95;61.83;97526.85;1691986;85;20131;-82
2022/05/09 08:27:17;;;;;;;;;;;;;;;16.97;64.29;97517.47;1692158;85;20224;-83
2022/05/09 08:29:43;;;;;;;;;;;;;;;16.98;62.01;97522.52;1692105;85;20148;-82
2022/05/09 08:32:08;;;;;;;;;;;;;;;17.01;64.35;97517.38;1692318;85;20115;-83
2022/05/09 08:34:34;;;;;;;;;;;;;;;17.17;64.18;97523.61;1672309;85;20131;-82
2022/05/09 08:37:00;;;;;;;;;;;;;;;17.22;59.38;97525.14;1692014;85;20179;-83
2022/05/09 08:39:26;;;;;;;;;;;;;;;17.24;61.81;97524.44;1692100;85;20115;-83
2022/05/09 08:42:04;;;;;;;;;;;;;;;17.28;60.94;97529.63;1692096;85;20108;-83
2022/05/09 08:44:43;;;;;;;;;;;;;;;17.36;61.24;97527.33;1692062;85;20103;-83
2022/05/09 08:47:31;;;;;;;;;;;;;;;17.48;60.72;97527.58;1692116;85;20112;-82
2022/05/09 08:50:15;;;;;;;;;;;;;;;17.56;60.47;97528.70;1692155;85;20100;-83
2022/05/09 08:52:45;;;;;;;;;;;;;;;17.70;60.06;97523.82;1692018;85;20123;-83
2022/05/09 08:55:11;;;;;;;;;;;;;;;17.85;58.67;97528.41;1688939;85;20325;-83
2022/05/09 08:57:49;;;;;;;;;;;;;;;17.94;58.16;97525.91;1691011;85;20142;-83
2022/05/09 09:00:17;;;;;;;;;;;;;;;18.00;60.09;97533.48;1708719;84;20090;-83
2022/05/09 09:03:01;;;;;;;;;;;;;;;17.99;55.40;97534.50;1709600;83;20374;-83
2022/05/09 09:05:30;;;;;;;;;;;;;;;18.02;58.59;97531.47;1710357;84;20094;-83
2022/05/09 09:08:09;;;;;;;;;;;;;;;18.21;59.67;97539.87;1709888;84;20102;-83
2022/05/09 09:11:02;;;;;;;;;;;;;;;18.26;55.33;97537.97;1710222;84;20141;-83
2022/05/09 09:13:32;;;;;;;;;;;;;;;18.25;58.47;97538.48;1710261;84;20105;-83
2022/05/09 09:16:12;;;;;;;;;;;;;;;18.40;55.58;97533.52;1710471;84;20097;-83
2022/05/09 09:18:51;;;;;;;;;;;;;;;18.49;57.97;97531.78;1710452;84;20114;-83
2022/05/09 09:21:45;;;;;;;;;;;;;;;18.68;57.14;97528.85;1710040;84;20098;-83
2022/05/09 09:24:26;;;;;;;;;;;;;;;18.79;56.11;97537.95;1710360;84;20117;-83
2022/05/09 09:27:11;;;;;;;;;;;;;;;18.78;55.64;97541.10;1710128;84;20105;-82
2022/05/09 09:29:48;;;;;;;;;;;;;;;18.78;55.25;97545.05;1709338;84;20117;-83
2022/05/09 09:32:18;;;;;;;;;;;;;;;18.83;54.29;97540.48;1709709;84;20102;-83
2022/05/09 09:34:56;;;;;;;;;;;;;;;18.93;56.58;97538.75;1710323;84;20355;-83
2022/05/09 09:37:38;;;;;;;;;;;;;;;19.04;51.00;97529.71;1710260;84;20117;-83
2022/05/09 09:40:06;;;;;;;;;;;;;;;18.96;54.24;97543.09;1709970;84;20109;-83
2022/05/09 09:42:31;;;;;;;;;;;;;;;19.05;51.92;97538.42;1710333;84;20114;-83
2022/05/09 09:45:00;;;;;;;;;;;;;;;19.00;52.48;97535.06;1715973;84;20102;-83
2022/05/09 09:47:25;;;;;;;;;;;;;;;19.09;54.88;97531.20;1710146;84;20114;-83
2022/05/09 09:50:20;;;;;;;;;;;;;;;19.24;54.09;97535.42;1710271;84;20358;-83
2022/05/09 09:52:49;;;;;;;;;;;;;;;19.37;53.46;97534.86;1710272;84;20165;-83
2022/05/09 09:55:35;;;;;;;;;;;;;;;19.40;53.36;97532.31;1709228;84;20090;-82
2022/05/09 09:58:22;;;;;;;;;;;;;;;19.42;54.87;97540.30;1710848;84;20137;-83
2022/05/09 10:01:08;;;;;;;;;;;;;;;19.56;53.27;97532.37;1682993;85;20183;-83
2022/05/09 10:03:35;;;;;;;;;;;;;;;19.63;53.21;97527.35;1688548;84;20084;-83
2022/05/09 10:06:01;;;;;;;;;;;;;;;19.66;50.14;97528.24;1693438;84;20115;-83
2022/05/09 10:08:33;;;;;;;;;;;;;;;19.64;53.73;97528.97;1690670;84;20330;-83
2022/05/09 10:11:06;;;;;;;;;;;;;;;19.74;53.66;97523.25;1683306;84;20115;-83
2022/05/09 10:13:47;;;;;;;;;;;;;;;19.67;53.15;97532.50;1693199;84;20164;-83
2022/05/09 10:16:26;;;;;;;;;;;;;;;19.77;54.72;97530.22;1692519;84;20119;-83
2022/05/09 10:18:52;;;;;;;;;;;;;;;20.00;50.09;97520.94;1693086;84;20096;-83
2022/05/09 10:26:58;;;;;;;;;;;;;;;19.31;50.60;97529.60;1693917;84;20396;-83
2022/05/09 10:29:25;;;;;;;;;;;;;;;19.04;53.22;97525.76;1693825;84;20103;-83
2022/05/09 10:31:57;;;;;;;;;;;;;;;19.17;53.32;97524.88;1698397;84;20136;-83
2022/05/09 10:34:27;;;;;;;;;;;;;;;19.19;53.06;97528.92;1721837;83;20166;-83
2022/05/09 10:37:00;;;;;;;;;;;;;;;19.09;53.71;97527.25;1682392;84;20183;-83
2022/05/09 10:39:37;;;;;;;;;;;;;;;19.08;54.33;97525.64;1682416;84;20091;-83
2022/05/09 10:42:09;;;;;;;;;;;;;;;19.07;52.49;97525.34;1706343;84;20111;-83
2022/05/09 10:44:54;;;;;;;;;;;;;;;19.01;53.62;97526.15;1673326;86;20156;-83
2022/05/09 10:47:44;;;;;;;;;;;;;;;19.12;51.85;97526.83;1703154;84;20150;-83
2022/05/09 10:50:13;;;;;;;;;;;;;;;19.31;54.75;97526.45;1704650;84;20085;-83
2022/05/09 10:53:03;;;;;;;;;;;;;;;19.56;54.99;97521.32;1702654;84;20369;-86
2022/05/09 10:55:40;;;;;;;;;;;;;;;19.59;55.46;97517.45;1703127;84;20136;-85
2022/05/09 10:58:27;;;;;;;;;;;;;;;19.58;53.39;97515.83;1681733;83;21893;-84
2022/05/09 11:00:55;;;;;;;;;;;;;;;19.39;53.76;97518.33;1714232;82;20125;-84
2022/05/09 11:03:34;;;;;;;;;;;;;;;19.25;52.69;97514.13;1684949;84;20092;-84
2022/05/09 11:06:20;;;;;;;;;;;;;;;19.11;51.78;97513.88;1713727;83;20101;-84
2022/05/09 11:08:59;;;;;;;;;;;;;;;18.96;51.21;97514.12;1682229;85;20105;-85
2022/05/09 11:11:46;;;;;;;;;;;;;;;18.94;51.04;97508.77;1682186;85;20105;-84
2022/05/09 11:14:19;;;;;;;;;;;;;;;18.83;50.34;97506.25;1664725;83;20145;-85
2022/05/09 11:17:08;;;;;;;;;;;;;;;18.78;52.02;97510.02;1710550;84;20083;-85
2022/05/09 11:19:54;;;;;;;;;;;;;;;18.80;51.29;97509.30;1705573;83;20098;-84
2022/05/09 11:22:29;;;;;;;;;;;;;;;19.05;52.07;97501.55;1664171;85;20146;-84
2022/05/09 11:25:17;;;;;;;;;;;;;;;19.15;49.85;97492.16;1743128;82;20348;-84
2022/05/09 11:28:07;;;;;;;;;;;;;;;19.14;52.19;97486.59;1740669;82;20080;-85
2022/05/09 11:30:49;;;;;;;;;;;;;;;19.09;51.82;97489.56;1692651;85;20084;-84
2022/05/09 11:33:47;;;;;;;;;;;;;;;19.19;51.74;97484.13;1692628;85;20140;-84
2022/05/09 11:36:52;;;;;;;;;;;;;;;19.33;52.68;97487.52;1722413;83;20154;-85
2022/05/09 11:39:39;;;;;;;;;;;;;;;19.54;53.37;97478.55;1686844;85;20192;-84
2022/05/09 11:45:30;;;;;;;;;;;;;;;19.45;49.73;97471.35;1690773;84;20134;-84
2022/05/09 11:48:00;;;;;;;;;;;;;;;19.65;50.32;97473.89;1676199;84;20093;-84
2022/05/09 11:50:28;;;;;;;;;;;;;;;19.72;49.96;97470.72;1691182;84;20127;-84
2022/05/09 11:52:54;;;;;;;;;;;;;;;19.86;50.77;97465.36;1691509;84;20163;-84
2022/05/09 11:55:22;;;;;;;;;;;;;;;20.02;49.70;97459.05;1694541;84;20159;-84
2022/05/09 11:57:56;;;;;;;;;;;;;;;20.14;49.57;97455.17;1689881;84;20127;-84
2022/05/09 12:00:29;;;;;;;;;;;;;;;20.23;48.72;97455.21;1680031;85;20327;-84
2022/05/09 12:02:58;;;;;;;;;;;;;;;20.06;47.60;97458.09;1675060;85;20105;-84
2022/05/09 12:05:31;;;;;;;;;;;;;;;19.79;47.90;97458.29;1665490;85;20108;-85
2022/05/09 12:08:09;;;;;;;;;;;;;;;19.55;48.70;97451.16;1668712;86;20081;-85
2022/05/09 12:10:37;;;;;;;;;;;;;;;19.42;48.76;97455.97;1677775;85;20124;-85
2022/05/09 12:13:04;;;;;;;;;;;;;;;19.47;50.15;97456.13;1689774;85;20088;-85
2022/05/09 12:15:37;;;;;;;;;;;;;;;19.66;48.95;97446.51;1689847;85;20095;-85
2022/05/09 12:18:09;;;;;;;;;;;;;;;19.76;48.67;97443.41;1681842;85;20306;-85
2022/05/09 12:20:38;;;;;;;;;;;;;;;19.94;48.38;97439.52;1659570;86;20157;-84
2022/05/09 12:23:11;;;;;;;;;;;;;;;20.21;48.79;97440.63;1656329;85;20120;-85
2022/05/09 12:25:49;;;;;;;;;;;;;;;20.27;47.89;97440.55;1666028;86;20107;-84
2022/05/09 12:28:27;;;;;;;;;;;;;;;20.03;47.57;97440.07;1698948;85;20145;-84
2022/05/09 12:31:04;;;;;;;;;;;;;;;20.02;48.19;97431.86;1689122;84;20100;-84
2022/05/09 12:33:48;;;;;;;;;;;;;;;20.28;48.84;97436.08;1698376;84;20380;-84
2022/05/09 12:36:23;;;;;;;;;;;;;;;20.04;44.76;97431.94;1697838;85;20123;-84
2022/05/09 12:38:52;;;;;;;;;;;;;;;19.72;46.95;97427.73;1698339;85;20120;-84
2022/05/09 12:41:22;;;;;;;;;;;;;;;19.57;46.58;97421.44;1697823;85;20158;-84
2022/05/09 12:44:00;;;;;;;;;;;;;;;19.48;48.37;97423.98;1698737;84;20099;-84
2022/05/09 12:46:31;;;;;;;;;;;;;;;19.55;48.42;97419.53;1723675;83;20089;-84
2022/05/09 12:48:59;;;;;;;;;;;;;;;19.71;46.46;97415.56;1728846;83;20092;-84
2022/05/09 12:51:25;;;;;;;;;;;;;;;19.56;46.93;97415.88;1730156;83;20093;-84
2022/05/09 12:53:51;;;;;;;;;;;;;;;19.39;46.32;97420.01;1730226;83;20125;-86
2022/05/09 12:56:22;;;;;;;;;;;;;;;19.19;47.63;97417.46;1730655;83;20152;-84
2022/05/09 12:58:50;;;;;;;;;;;;;;;19.40;47.16;97413.72;1730355;83;20153;-84
2022/05/09 13:01:23;;;;;;;;;;;;;;;19.62;47.47;97414.20;1728697;83;20089;-84
2022/05/09 13:03:51;;;;;;;;;;;;;;;19.83;48.27;97406.43;1730254;83;20113;-85
2022/05/09 13:06:20;;;;;;;;;;;;;;;20.04;45.86;97409.52;1729900;83;20093;-84
2022/05/09 13:08:45;;;;;;;;;;;;;;;20.17;45.55;97412.52;1729983;83;20275;-84
2022/05/09 13:11:19;;;;;;;;;;;;;;;20.17;45.11;97403.80;1730622;83;20121;-84
2022/05/09 13:13:48;;;;;;;;;;;;;;;20.25;43.80;97411.45;1730643;83;20114;-84
2022/05/09 13:16:22;;;;;;;;;;;;;;;20.30;43.56;97407.64;1706736;83;20142;-84
2022/05/09 13:18:47;;;;;;;;;;;;;;;20.34;44.63;97403.55;1689400;84;20100;-84